Impacts TAF Board INFO
FOR SITUATIONAL AWARENESS. NOT TO BE USED FOR FLIGHT PLANNING PURPOSES.
IDs:

KIAH - Houston/Bush Intl, TX, US

Issued at 0840 UTC 22 Feb 2018
Updated at 0855 UTC 22 Feb 2018
Potential Impact None Slight Moderate High
Time0753Z 22/09Z 22/10Z 22/11Z 22/12Z 22/13Z 22/14Z 22/15Z 22/16Z 22/17Z 22/18Z 22/19Z 22/20Z 22/21Z>>
Type OBS PRVL PRVL PRVL PRVL PRVL PRVL PRVL PRVL PRVL PRVL PRVL PRVL PRVL
VIS 10 >6 4 4 4 4 4 4 4 4 3 3 3 3
CIG 6 6 4 4 4 4 4 4 4 4 7 7 7 7
Cover OVC OVC OVC OVC OVC OVC OVC OVC OVC OVC OVC OVC OVC OVC
FltCat IFR IFR LIFR LIFR LIFR LIFR LIFR LIFR LIFR LIFR IFR IFR IFR IFR
WX -RA -RA BR VCSH BR VCSH BR VCSH BR VCSH BR VCSH BR VCSH BR VCSH BR VCSH BR VCSH BR VCSH BR VCSH BR VCSH
WDir 10 10 10 10 10 10 10 10 10 10 140 140 140 140
WSpd 7 7 7 7 7 7 7 7 7 7 7 7 7 7
WGst -- -- -- -- -- -- -- -- -- -- -- -- -- --

Raw TAF
KIAH 220840Z 2209/2312 01007KT P6SM -RA BKN006 OVC011
  FM221000 01007KT 4SM BR VCSH OVC004
  FM221800 14007KT 3SM BR VCSH OVC007
  FM230100 16008KT 5SM BR VCSH OVC004


Raw METAR
KIAH 220753Z 01007KT 10SM -RA BKN006 OVC011 11/10 A3019 RMK AO2 SLP223 P0004 T01060100
KIAH 220728Z 34006KT 8SM -RA BKN006 OVC012 11/10 A3020 RMK AO2 OCNL LTGIC DSNT NE SW CB DSNT NE SW MOV NE P0003 T01060100
KIAH 220708Z 35008KT 8SM -RA SCT005 OVC013 11/10 A3019 RMK AO2 OCNL LTGIC DSNT N-NE SW CB DSNT N-NE SW MOV NE P0001 T01060100
KIAH 220653Z 35007KT 8SM +RA BKN005 OVC014 11/10 A3020 RMK AO2 LTG DSNT W-NE RAB0555 SLP226 P0011 T01060100
KIAH 220553Z 32009KT 10SM BKN006 OVC016 11/10 A3021 RMK AO2 LTG DSNT NE AND NW RAE53 SLP229 CB DSNT NE NW MOV NE P0008 60028 T01060100 10144 20106 402390106 53014

METAR Board
Radar Display
Forecast Discussion

FOR SITUATIONAL AWARENESS. NOT TO BE USED FOR FLIGHT PLANNING PURPOSES.